createdAt,value
2022-11-24T00:02:19.135Z,5.23
2022-11-24T00:05:05.132Z,5.70
2022-11-24T00:07:50.190Z,5.10
2022-11-24T00:10:35.737Z,5.23
2022-11-24T00:13:20.891Z,5.37
2022-11-24T00:16:23.946Z,5.20
2022-11-24T00:19:09.860Z,5.50
2022-11-24T00:21:55.041Z,5.63
2022-11-24T00:24:40.093Z,5.47
2022-11-24T00:27:24.927Z,5.10
2022-11-24T00:30:10.201Z,5.23
2022-11-24T00:32:55.103Z,5.30
2022-11-24T00:35:40.501Z,5.63
2022-11-24T00:38:26.437Z,5.93
2022-11-24T00:41:12.289Z,6.07
2022-11-24T00:43:58.257Z,5.87
2022-11-24T00:46:43.309Z,6.07
2022-11-24T00:49:28.699Z,6.07
2022-11-24T00:52:13.685Z,6.47
2022-11-24T00:54:58.501Z,5.70
2022-11-24T00:57:46.379Z,6.53
2022-11-24T01:00:31.339Z,6.47
2022-11-24T01:03:17.457Z,6.07
2022-11-24T01:06:08.519Z,6.50
2022-11-24T01:08:54.217Z,7.57
2022-11-24T01:11:39.218Z,6.30
2022-11-24T01:14:25.384Z,6.67
2022-11-24T01:17:10.288Z,6.00
2022-11-24T01:19:55.596Z,6.63
2022-11-24T01:22:41.091Z,7.03
2022-11-24T01:25:26.021Z,6.77
2022-11-24T01:28:10.931Z,7.10
2022-11-24T01:31:04.320Z,6.93
2022-11-24T01:33:49.614Z,6.67
2022-11-24T01:36:34.759Z,6.47
2022-11-24T01:39:20.220Z,6.73
2022-11-24T01:42:05.346Z,6.47
2022-11-24T01:45:33.900Z,6.33
2022-11-24T01:48:34.852Z,6.60
2022-11-24T01:51:25.152Z,6.43
2022-11-24T01:54:40.140Z,7.37
2022-11-24T01:57:30.160Z,6.17
2022-11-24T02:00:16.233Z,6.57
2022-11-24T02:03:01.621Z,6.97
2022-11-24T02:06:13.354Z,7.37
2022-11-24T02:09:22.737Z,6.87
2022-11-24T02:12:08.234Z,7.50
2022-11-24T02:14:54.831Z,7.10
2022-11-24T02:17:40.290Z,7.00
2022-11-24T02:20:26.106Z,7.47
2022-11-24T02:23:24.152Z,6.97
2022-11-24T02:26:27.830Z,6.60
2022-11-24T02:29:14.197Z,6.60
2022-11-24T02:32:01.816Z,6.37
2022-11-24T02:34:47.165Z,5.83
2022-11-24T02:37:32.041Z,6.20
2022-11-24T02:40:21.603Z,5.57
2022-11-24T02:43:15.318Z,5.67
2022-11-24T02:46:00.173Z,5.30
2022-11-24T02:48:45.655Z,5.73
2022-11-24T02:51:30.789Z,5.27
2022-11-24T02:54:16.020Z,5.87
2022-11-24T02:57:00.893Z,5.80
2022-11-24T02:59:45.710Z,5.37
2022-11-24T03:02:31.279Z,5.30
2022-11-24T03:05:16.882Z,6.07
2022-11-24T03:08:02.034Z,5.27
2022-11-24T03:10:47.230Z,5.80
2022-11-24T03:13:32.716Z,5.37
2022-11-24T03:16:17.785Z,6.43
2022-11-24T03:19:02.730Z,5.60
2022-11-24T03:21:47.660Z,4.97
2022-11-24T03:24:33.203Z,4.93
2022-11-24T03:27:18.637Z,4.83
2022-11-24T03:30:04.443Z,5.30
2022-11-24T03:32:54.071Z,4.43
2022-11-24T03:35:39.166Z,5.17
2022-11-24T03:38:24.598Z,5.03
2022-11-24T03:41:11.142Z,5.07
2022-11-24T03:43:56.129Z,4.37
2022-11-24T03:46:41.605Z,5.03
2022-11-24T03:49:27.012Z,4.90
2022-11-24T03:52:11.907Z,5.30
2022-11-24T03:54:57.264Z,4.70
2022-11-24T03:57:42.639Z,4.60
2022-11-24T04:00:27.756Z,4.87
2022-11-24T04:03:12.979Z,5.20
2022-11-24T04:05:58.354Z,4.60
2022-11-24T04:08:43.496Z,4.83
2022-11-24T04:11:28.659Z,4.50
2022-11-24T04:14:14.014Z,4.93
2022-11-24T04:16:59.169Z,4.43
2022-11-24T04:19:43.942Z,4.73
2022-11-24T04:22:29.066Z,4.37
2022-11-24T04:25:14.500Z,5.00
2022-11-24T04:27:59.380Z,4.07
2022-11-24T04:30:45.132Z,4.20
2022-11-24T04:33:31.030Z,4.53
2022-11-24T04:36:15.947Z,5.00
2022-11-24T04:39:20.122Z,5.20
2022-11-24T04:42:06.342Z,5.13
2022-11-24T04:44:52.097Z,4.83
2022-11-24T04:47:38.133Z,5.17
2022-11-24T04:50:23.322Z,4.93
2022-11-24T04:53:10.167Z,4.90
2022-11-24T04:55:55.474Z,5.63
2022-11-24T04:58:40.522Z,5.70
2022-11-24T05:01:25.588Z,4.90
2022-11-24T05:04:12.479Z,5.47
2022-11-24T05:06:57.446Z,5.00
2022-11-24T05:09:58.945Z,5.17
2022-11-24T05:12:51.002Z,4.87
2022-11-24T05:15:38.165Z,5.53
2022-11-24T05:18:23.960Z,5.77
2022-11-24T05:21:08.930Z,5.20
2022-11-24T05:23:53.764Z,5.40
2022-11-24T05:26:38.702Z,4.40
2022-11-24T05:29:23.605Z,5.17
2022-11-24T05:32:08.540Z,4.90
2022-11-24T05:34:53.330Z,4.90
2022-11-24T05:37:38.797Z,4.43
2022-11-24T05:40:24.497Z,4.73
2022-11-24T05:43:13.556Z,5.30
2022-11-24T05:46:00.416Z,5.20
2022-11-24T05:48:45.749Z,5.03
2022-11-24T05:51:30.870Z,4.50
2022-11-24T05:54:16.035Z,5.10
2022-11-24T05:57:01.184Z,5.13
2022-11-24T05:59:46.523Z,4.60
2022-11-24T06:02:31.616Z,5.17
2022-11-24T06:05:17.068Z,5.30
2022-11-24T06:08:02.006Z,4.97
2022-11-24T06:10:46.976Z,4.50
2022-11-24T06:13:32.319Z,4.77
2022-11-24T06:16:17.616Z,4.47
2022-11-24T06:19:03.000Z,5.07
2022-11-24T06:21:48.391Z,5.13
2022-11-24T06:24:33.559Z,5.13
2022-11-24T06:27:19.304Z,4.60
2022-11-24T06:30:05.116Z,4.83
2022-11-24T06:32:54.893Z,5.23
2022-11-24T06:35:40.027Z,5.30
2022-11-24T06:38:25.051Z,5.40
2022-11-24T06:41:13.606Z,5.03
2022-11-24T06:44:03.813Z,5.07
2022-11-24T06:46:49.048Z,5.97
2022-11-24T06:49:37.255Z,5.23
2022-11-24T06:52:23.423Z,5.07
2022-11-24T06:55:08.643Z,5.67
2022-11-24T06:57:53.799Z,5.73
2022-11-24T07:00:39.406Z,5.87
2022-11-24T07:03:24.600Z,5.90
2022-11-24T07:06:10.236Z,6.17
2022-11-24T07:08:55.401Z,5.70
2022-11-24T07:11:41.148Z,5.77
2022-11-24T07:14:26.421Z,5.63
2022-11-24T07:17:11.860Z,5.90
2022-11-24T07:19:56.657Z,5.43
2022-11-24T07:22:46.895Z,6.07
2022-11-24T07:25:32.026Z,5.93
2022-11-24T07:28:16.848Z,6.07
2022-11-24T07:31:11.303Z,6.83
2022-11-24T07:33:56.403Z,6.60
2022-11-24T07:36:42.384Z,5.87
2022-11-24T07:39:27.570Z,6.70
2022-11-24T07:42:13.110Z,5.57
2022-11-24T07:44:58.209Z,6.87
2022-11-24T07:47:44.014Z,6.77
2022-11-24T07:50:29.754Z,6.27
2022-11-24T07:53:15.648Z,6.70
2022-11-24T07:56:02.345Z,6.50
2022-11-24T07:58:52.600Z,6.07
2022-11-24T08:01:38.483Z,6.53
2022-11-24T08:04:23.793Z,7.63
2022-11-24T08:07:08.835Z,7.10
2022-11-24T08:09:54.343Z,6.73
2022-11-24T08:12:39.237Z,6.50
2022-11-24T08:15:24.035Z,7.60
2022-11-24T08:18:09.706Z,7.23
2022-11-24T08:20:58.268Z,7.87
2022-11-24T08:23:43.229Z,7.40
2022-11-24T08:26:28.273Z,7.10
2022-11-24T08:29:14.329Z,7.90
2022-11-24T08:31:59.495Z,7.97
2022-11-24T08:34:45.072Z,7.93
2022-11-24T08:37:29.804Z,7.57
2022-11-24T08:40:14.829Z,8.07
2022-11-24T08:43:00.948Z,8.20
2022-11-24T08:45:45.892Z,7.73
2022-11-24T08:48:33.876Z,7.20
2022-11-24T08:51:22.927Z,7.20
2022-11-24T08:54:10.233Z,8.23
2022-11-24T08:56:55.762Z,7.33
2022-11-24T08:59:40.755Z,6.60
2022-11-24T09:02:26.205Z,6.33
2022-11-24T09:05:43.331Z,5.70
2022-11-24T09:08:16.374Z,6.93
2022-11-24T09:11:08.077Z,5.37
2022-11-24T09:13:54.507Z,6.63
2022-11-24T09:16:40.032Z,6.53
2022-11-24T09:19:25.114Z,5.90
2022-11-24T09:22:10.488Z,5.80
2022-11-24T09:24:55.983Z,5.63
2022-11-24T09:27:40.985Z,5.83
2022-11-24T09:30:26.408Z,4.97
2022-11-24T09:33:11.283Z,5.40
2022-11-24T09:35:56.836Z,4.70
2022-11-24T09:38:41.883Z,5.17
2022-11-24T09:41:57.660Z,5.03
2022-11-24T09:45:04.566Z,5.57
2022-11-24T09:48:01.097Z,5.00
2022-11-24T09:50:49.411Z,5.40
2022-11-24T09:53:39.616Z,4.73
2022-11-24T09:56:31.074Z,4.43
2022-11-24T09:59:24.547Z,4.10
2022-11-24T10:02:12.607Z,3.00
2022-11-24T10:04:57.813Z,3.83
2022-11-24T10:07:55.045Z,3.83
2022-11-24T10:10:54.803Z,4.90
2022-11-24T10:13:49.124Z,3.63
2022-11-24T10:17:02.972Z,3.80
2022-11-24T10:20:24.196Z,4.40
2022-11-24T10:23:31.893Z,4.63
2022-11-24T10:26:18.348Z,4.53
2022-11-24T10:29:20.329Z,4.80
2022-11-24T10:32:19.545Z,4.40
2022-11-24T10:35:20.940Z,4.43
2022-11-24T10:38:20.586Z,4.63
2022-11-24T10:41:14.260Z,4.70
2022-11-24T10:43:59.079Z,4.53
2022-11-24T10:46:44.692Z,4.80
2022-11-24T10:49:32.268Z,4.50
2022-11-24T10:52:18.883Z,4.57
2022-11-24T10:55:05.464Z,4.83
2022-11-24T10:57:50.554Z,4.57
2022-11-24T11:00:35.908Z,4.43
2022-11-24T11:03:26.701Z,5.10
2022-11-24T11:06:13.816Z,4.93
2022-11-24T11:09:08.219Z,4.43
2022-11-24T11:11:53.445Z,4.60
2022-11-24T11:14:38.654Z,5.13
2022-11-24T11:17:34.299Z,5.30
2022-11-24T11:20:27.653Z,4.97
2022-11-24T11:23:16.284Z,5.07
2022-11-24T11:26:32.520Z,5.20
2022-11-24T11:35:33.626Z,6.00
2022-11-24T11:38:19.456Z,6.10
2022-11-24T11:41:07.067Z,6.37
2022-11-24T11:44:01.860Z,6.33
2022-11-24T11:46:47.392Z,6.20
2022-11-24T11:49:32.959Z,6.40
2022-11-24T11:52:46.235Z,6.53
2022-11-24T11:55:49.655Z,7.30
2022-11-24T12:01:25.495Z,7.23
2022-11-24T12:04:31.309Z,6.93
2022-11-24T12:07:43.244Z,6.63
2022-11-24T12:10:42.021Z,6.93
2022-11-24T12:13:36.298Z,6.50
2022-11-24T12:16:24.495Z,7.47
2022-11-24T12:19:28.880Z,7.57
2022-11-24T12:22:37.125Z,7.60
2022-11-24T12:26:04.903Z,7.80
2022-11-24T12:28:55.665Z,7.93
2022-11-24T12:32:06.865Z,8.20
2022-11-24T12:35:20.679Z,8.70
2022-11-24T12:38:44.815Z,9.03
2022-11-24T12:42:13.794Z,8.73
2022-11-24T12:45:12.667Z,8.60
2022-11-24T12:48:16.315Z,8.57
2022-11-24T12:51:04.495Z,8.80
2022-11-24T12:53:50.856Z,9.13
2022-11-24T12:57:09.259Z,9.10
2022-11-24T13:00:04.900Z,9.40
2022-11-24T13:03:19.080Z,9.53
2022-11-24T13:06:27.816Z,9.20
2022-11-24T13:09:14.113Z,8.80
2022-11-24T13:12:13.655Z,8.80
2022-11-24T13:14:59.191Z,9.43
2022-11-24T13:18:05.272Z,9.20
2022-11-24T13:20:55.919Z,8.67
2022-11-24T13:23:41.280Z,8.97
2022-11-24T13:26:42.090Z,9.77
2022-11-24T13:29:58.427Z,10.40
2022-11-24T13:32:43.332Z,9.63
2022-11-24T13:35:29.293Z,9.47
2022-11-24T13:38:48.461Z,9.20
2022-11-24T13:41:33.644Z,8.90
2022-11-24T13:44:25.162Z,9.03
2022-11-24T13:47:47.445Z,9.57
2022-11-24T13:50:54.606Z,10.07
2022-11-24T13:53:45.090Z,9.90
2022-11-24T13:56:31.166Z,9.87
2022-11-24T13:59:24.259Z,9.90
2022-11-24T14:02:23.255Z,9.60
2022-11-24T14:05:13.463Z,9.60
2022-11-24T14:07:58.433Z,9.27
2022-11-24T14:10:43.603Z,11.33
2022-11-24T14:13:29.966Z,10.57
2022-11-24T14:16:14.857Z,11.07
2022-11-24T14:19:09.960Z,10.63
2022-11-24T14:21:55.334Z,10.83
2022-11-24T14:24:41.831Z,10.90
2022-11-24T14:27:38.929Z,10.90
2022-11-24T14:30:25.510Z,10.43
2022-11-24T14:33:11.984Z,11.03
2022-11-24T14:35:56.862Z,11.67
2022-11-24T14:38:42.627Z,10.30
2022-11-24T14:41:27.684Z,12.77
2022-11-24T14:44:19.813Z,10.30
2022-11-24T14:47:31.631Z,10.00
2022-11-24T14:50:18.685Z,9.40
2022-11-24T14:53:14.948Z,8.33
2022-11-24T14:56:27.031Z,8.60
2022-11-24T14:59:27.778Z,8.10
2022-11-24T15:02:40.203Z,7.63
2022-11-24T15:05:51.519Z,8.67
2022-11-24T15:08:46.861Z,8.40
2022-11-24T15:11:35.233Z,8.07
2022-11-24T15:14:36.671Z,8.03
2022-11-24T15:17:24.983Z,8.07
2022-11-24T15:20:17.273Z,8.20
2022-11-24T15:23:22.886Z,8.27
2022-11-24T15:26:11.266Z,7.73
2022-11-24T15:28:56.242Z,7.33
2022-11-24T15:31:45.119Z,7.93
2022-11-24T15:34:33.025Z,7.30
2022-11-24T15:37:18.143Z,7.70
2022-11-24T15:40:03.167Z,7.77
2022-11-24T15:42:59.637Z,7.90
2022-11-24T15:45:48.478Z,9.00
2022-11-24T15:48:33.876Z,10.03
2022-11-24T15:51:19.624Z,9.33
2022-11-24T15:54:04.976Z,11.00
2022-11-24T15:56:50.146Z,12.23
2022-11-24T15:59:34.951Z,11.43
2022-11-24T16:02:20.435Z,11.67
2022-11-24T16:05:08.618Z,10.57
2022-11-24T16:07:54.087Z,10.27
2022-11-24T16:10:41.639Z,11.90
2022-11-24T16:13:27.770Z,11.03
2022-11-24T16:16:13.603Z,12.53
2022-11-24T16:18:58.940Z,10.43
2022-11-24T16:21:47.704Z,12.77
2022-11-24T16:24:33.047Z,14.97
2022-11-24T16:27:20.065Z,14.40
2022-11-24T16:30:07.550Z,13.57
2022-11-24T16:32:55.955Z,12.93
2022-11-24T16:35:41.483Z,14.87
2022-11-24T16:38:26.659Z,13.53
2022-11-24T16:41:12.233Z,13.13
2022-11-24T16:44:01.512Z,13.13
2022-11-24T16:46:46.293Z,13.47
2022-11-24T16:49:31.364Z,13.23
2022-11-24T16:52:16.823Z,14.07
2022-11-24T16:55:01.741Z,13.87
2022-11-24T16:57:46.833Z,13.23
2022-11-24T17:00:35.075Z,15.90
2022-11-24T17:03:23.628Z,15.77
2022-11-24T17:06:11.592Z,15.23
2022-11-24T17:09:00.231Z,15.47
2022-11-24T17:11:45.489Z,17.00
2022-11-24T17:14:30.529Z,15.97
2022-11-24T17:17:15.701Z,17.07
2022-11-24T17:20:00.959Z,16.93
2022-11-24T17:22:46.340Z,17.17
2022-11-24T17:25:32.620Z,18.40
2022-11-24T17:28:17.745Z,20.43
2022-11-24T17:31:27.994Z,23.20
2022-11-24T17:34:13.735Z,21.40
2022-11-24T17:36:58.875Z,19.63
2022-11-24T17:39:54.824Z,18.07
2022-11-24T17:42:48.951Z,18.27
2022-11-24T17:45:34.424Z,17.97
2022-11-24T17:48:19.747Z,18.00
2022-11-24T17:51:13.210Z,18.20
2022-11-24T17:53:58.213Z,18.07
2022-11-24T17:56:43.877Z,18.47
2022-11-24T17:59:28.939Z,18.40
2022-11-24T18:02:13.880Z,17.83
2022-11-24T18:04:59.278Z,20.43
2022-11-24T18:07:44.627Z,18.40
2022-11-24T18:10:32.292Z,18.27
2022-11-24T18:13:34.112Z,22.60
2022-11-24T18:16:23.302Z,21.50
2022-11-24T18:19:09.894Z,19.30
2022-11-24T18:21:55.767Z,20.80
2022-11-24T18:24:41.155Z,20.80
2022-11-24T18:27:26.153Z,20.17
2022-11-24T18:30:11.568Z,20.07
2022-11-24T18:32:58.525Z,18.87
2022-11-24T18:36:02.392Z,20.73
2022-11-24T18:38:47.604Z,20.47
2022-11-24T18:41:32.745Z,20.57
2022-11-24T18:44:18.000Z,20.57
2022-11-24T18:47:04.309Z,19.67
2022-11-24T18:49:49.542Z,20.97
2022-11-24T18:52:34.493Z,21.07
2022-11-24T18:55:19.309Z,21.77
2022-11-24T18:58:05.837Z,20.83
2022-11-24T19:00:51.973Z,20.43
2022-11-24T19:03:43.598Z,23.23
2022-11-24T19:06:36.422Z,19.80
2022-11-24T19:09:21.681Z,20.17
2022-11-24T19:12:09.252Z,19.53
2022-11-24T19:14:55.621Z,19.10
2022-11-24T19:17:47.210Z,19.30
2022-11-24T19:20:33.963Z,17.97
2022-11-24T19:23:20.435Z,18.97
2022-11-24T19:26:08.168Z,17.50
2022-11-24T19:28:53.020Z,18.10
2022-11-24T19:31:38.507Z,16.30
2022-11-24T19:34:24.225Z,16.33
2022-11-24T19:37:09.720Z,16.03
2022-11-24T19:39:54.753Z,16.70
2022-11-24T19:42:40.097Z,17.20
2022-11-24T19:45:25.331Z,16.40
2022-11-24T19:48:10.806Z,16.57
2022-11-24T19:51:04.457Z,16.63
2022-11-24T19:53:49.771Z,17.87
2022-11-24T19:56:36.461Z,16.83
2022-11-24T19:59:21.579Z,15.43
2022-11-24T20:02:07.062Z,14.93
2022-11-24T20:04:52.795Z,21.60
2022-11-24T20:07:37.787Z,16.53
2022-11-24T20:10:23.022Z,16.70
2022-11-24T20:13:08.011Z,17.37
2022-11-24T20:15:53.049Z,17.03
2022-11-24T20:18:42.331Z,17.63
2022-11-24T20:21:29.343Z,16.23
2022-11-24T20:24:19.773Z,16.67
2022-11-24T20:27:04.916Z,17.43
2022-11-24T20:29:49.796Z,15.37
2022-11-24T20:32:35.187Z,18.37
2022-11-24T20:35:20.079Z,16.77
2022-11-24T20:38:05.102Z,17.13
2022-11-24T20:40:50.020Z,17.03
2022-11-24T20:43:36.139Z,17.60
2022-11-24T20:46:26.980Z,18.60
2022-11-24T20:49:15.784Z,17.33
2022-11-24T20:52:00.817Z,18.87
2022-11-24T20:54:46.318Z,19.87
2022-11-24T20:57:31.528Z,20.63
2022-11-24T21:00:16.737Z,18.20
2022-11-24T21:03:02.931Z,20.83
2022-11-24T21:05:54.798Z,17.87
2022-11-24T21:08:42.302Z,19.53
2022-11-24T21:11:28.117Z,19.40
2022-11-24T21:14:13.135Z,17.40
2022-11-24T21:16:58.188Z,19.67
2022-11-24T21:19:43.411Z,20.43
2022-11-24T21:22:28.585Z,20.03
2022-11-24T21:25:19.657Z,20.17
2022-11-24T21:28:05.203Z,18.87
2022-11-24T21:30:50.153Z,18.37
2022-11-24T21:33:42.730Z,18.90
2022-11-24T21:36:28.003Z,19.30
2022-11-24T21:39:14.399Z,17.47
2022-11-24T21:41:59.630Z,18.43
2022-11-24T21:44:44.638Z,18.07
2022-11-24T21:47:29.415Z,17.90
2022-11-24T21:50:15.994Z,17.53
2022-11-24T21:53:03.578Z,16.13
2022-11-24T21:55:59.782Z,16.47
2022-11-24T21:58:50.257Z,16.57
2022-11-24T22:01:36.031Z,16.47
2022-11-24T22:04:21.284Z,21.23
2022-11-24T22:07:06.178Z,16.07
2022-11-24T22:09:51.457Z,16.27
2022-11-24T22:12:36.882Z,16.37
2022-11-24T22:15:22.360Z,14.60
2022-11-24T22:18:07.651Z,14.57
2022-11-24T22:20:55.788Z,14.63
2022-11-24T22:23:41.266Z,13.97
2022-11-24T22:26:28.026Z,12.63
2022-11-24T22:29:19.388Z,13.03
2022-11-24T22:32:04.679Z,12.17
2022-11-24T22:34:49.867Z,12.13
2022-11-24T22:37:34.755Z,11.63
2022-11-24T22:40:19.708Z,11.60
2022-11-24T22:43:04.987Z,11.70
2022-11-24T22:45:49.987Z,12.10
2022-11-24T22:48:35.562Z,11.20
2022-11-24T22:51:26.203Z,11.73
2022-11-24T22:54:12.139Z,11.80
2022-11-24T22:56:56.991Z,11.43
2022-11-24T22:59:41.940Z,11.03
2022-11-24T23:02:28.288Z,10.70
2022-11-24T23:05:17.997Z,11.03
2022-11-24T23:08:05.720Z,10.57
2022-11-24T23:10:51.021Z,10.97
2022-11-24T23:13:36.407Z,10.90
2022-11-24T23:16:22.245Z,10.40
2022-11-24T23:19:08.504Z,10.37
2022-11-24T23:21:53.567Z,9.30
2022-11-24T23:24:38.484Z,10.33
2022-11-24T23:27:23.696Z,9.73
2022-11-24T23:30:08.860Z,10.13
2022-11-24T23:32:54.077Z,9.17
2022-11-24T23:35:39.305Z,9.73
2022-11-24T23:38:26.696Z,10.03
2022-11-24T23:41:17.857Z,9.87
2022-11-24T23:44:03.420Z,9.83
2022-11-24T23:46:48.624Z,9.50
2022-11-24T23:49:33.565Z,9.00
2022-11-24T23:52:18.348Z,9.40
2022-11-24T23:55:03.652Z,9.40
2022-11-24T23:57:48.517Z,9.93
